Time;durP1;ratioP1;P1;durP2;ratioP2;P2;SDS_P1;SDS_P2;PMS_P1;PMS_P2;Temp;Humidity;BMP_temperature;BMP_pressure;BME280_temperature;BME280_humidity;BME280_pressure;Samples;Min_cycle;Max_cycle;Signal;HPM_P1;HPM_P2
2022/04/09 00:00:52;;;;;;;2.83;0.90;;;4.20;99.90;;;;;;4984232;28;20599;-46
2022/04/09 00:03:19;;;;;;;3.63;1.00;;;4.20;99.90;;;;;;4966615;28;20211;-47
2022/04/09 00:05:47;;;;;;;1.37;0.93;;;4.20;99.90;;;;;;4973122;28;20234;-49
2022/04/09 00:08:13;;;;;;;5.10;1.30;;;4.20;99.90;;;;;;4993657;28;20218;-45
2022/04/09 00:10:40;;;;;;;6.07;1.10;;;4.30;99.90;;;;;;4977007;28;20213;-50
2022/04/09 00:13:07;;;;;;;2.40;1.43;;;4.20;99.90;;;;;;4979116;28;20226;-49
2022/04/09 00:15:35;;;;;;;2.67;0.97;;;4.20;99.90;;;;;;4981059;28;20234;-51
2022/04/09 00:18:02;;;;;;;4.10;1.10;;;4.30;99.90;;;;;;4976177;28;20213;-46
2022/04/09 00:20:29;;;;;;;3.50;1.10;;;4.30;99.90;;;;;;4969145;28;20606;-47
2022/04/09 00:22:56;;;;;;;6.57;1.33;;;4.30;99.90;;;;;;4968465;28;21141;-46
2022/04/09 00:25:24;;;;;;;6.10;1.57;;;4.20;99.90;;;;;;4996764;28;20253;-45
2022/04/09 00:27:51;;;;;;;3.53;1.17;;;4.20;99.90;;;;;;4967158;28;20205;-46
2022/04/09 00:30:17;;;;;;;4.03;1.00;;;4.20;99.90;;;;;;4975385;28;20216;-47
2022/04/09 00:32:46;;;;;;;4.70;1.30;;;4.20;99.90;;;;;;4989734;28;24631;-47
2022/04/09 00:35:13;;;;;;;3.03;0.97;;;4.20;99.90;;;;;;4969486;28;20239;-46
2022/04/09 00:37:43;;;;;;;3.60;1.43;;;4.20;99.90;;;;;;4962152;28;20293;-47
2022/04/09 00:40:12;;;;;;;4.17;1.30;;;4.20;99.90;;;;;;4989423;28;20210;-46
2022/04/09 00:42:41;;;;;;;4.57;1.03;;;4.10;99.90;;;;;;4976102;28;20210;-46
2022/04/09 00:45:09;;;;;;;3.03;0.93;;;4.10;99.90;;;;;;4965498;28;20805;-46
2022/04/09 00:47:36;;;;;;;2.97;1.00;;;4.10;99.90;;;;;;4995764;28;20201;-46
2022/04/09 00:50:07;;;;;;;3.60;1.20;;;4.00;99.90;;;;;;4977290;28;20437;-47
2022/04/09 00:52:35;;;;;;;8.53;1.67;;;4.00;99.90;;;;;;4977764;28;20235;-46
2022/04/09 00:55:04;;;;;;;3.93;1.67;;;4.10;99.90;;;;;;4967089;28;20255;-47
2022/04/09 00:57:34;;;;;;;6.30;1.23;;;4.00;99.90;;;;;;4980999;28;20213;-46
2022/04/09 01:00:09;;;;;;;7.67;1.57;;;4.10;99.90;;;;;;4972289;28;20434;-47
2022/04/09 01:02:36;;;;;;;7.17;2.13;;;4.10;99.90;;;;;;4989372;28;20535;-47
2022/04/09 01:05:05;;;;;;;2.17;1.20;;;4.10;99.90;;;;;;4992218;28;21402;-47
2022/04/09 01:07:32;;;;;;;2.33;1.20;;;4.10;99.90;;;;;;4973130;28;20559;-46
2022/04/09 01:09:59;;;;;;;3.17;1.40;;;4.10;99.90;;;;;;4968140;28;20221;-47
2022/04/09 01:12:26;;;;;;;2.03;1.10;;;4.10;99.90;;;;;;4986312;28;21383;-46
2022/04/09 01:14:53;;;;;;;6.47;1.37;;;4.10;99.90;;;;;;4980171;28;20329;-47
2022/04/09 01:17:20;;;;;;;6.30;1.27;;;4.20;99.90;;;;;;4976041;28;20232;-46
2022/04/09 01:19:47;;;;;;;4.23;1.37;;;4.20;99.90;;;;;;4976560;28;20216;-46
2022/04/09 01:22:15;;;;;;;3.80;1.37;;;4.10;99.90;;;;;;4981397;28;20657;-46
2022/04/09 01:24:42;;;;;;;8.10;1.50;;;4.10;99.90;;;;;;4975438;28;20230;-46
2022/04/09 01:27:09;;;;;;;5.40;1.77;;;4.10;99.90;;;;;;4967511;28;21295;-45
2022/04/09 01:29:36;;;;;;;3.23;1.60;;;4.20;99.90;;;;;;4972608;28;20206;-46
2022/04/09 01:32:03;;;;;;;2.23;1.43;;;4.10;99.90;;;;;;4980294;28;20278;-47
2022/04/09 01:34:30;;;;;;;6.30;1.70;;;4.20;99.90;;;;;;4978621;28;20388;-46
2022/04/09 01:36:57;;;;;;;3.43;1.30;;;4.10;99.90;;;;;;4990803;28;20581;-46
2022/04/09 01:39:25;;;;;;;5.37;1.27;;;4.10;99.90;;;;;;4963000;28;20222;-45
2022/04/09 01:41:52;;;;;;;5.00;1.50;;;4.10;99.90;;;;;;4970064;28;20217;-44
2022/04/09 01:44:19;;;;;;;5.77;1.50;;;4.10;99.90;;;;;;4977187;28;20229;-46
2022/04/09 01:46:45;;;;;;;4.70;1.90;;;4.10;99.90;;;;;;4965854;28;20547;-46
2022/04/09 01:49:13;;;;;;;2.73;0.87;;;4.10;99.90;;;;;;4986819;28;20222;-45
2022/04/09 01:51:40;;;;;;;5.57;1.30;;;4.10;99.90;;;;;;4972073;28;20723;-47
2022/04/09 01:54:07;;;;;;;2.07;1.13;;;4.10;99.90;;;;;;4966208;28;20257;-45
2022/04/09 01:56:35;;;;;;;7.13;1.40;;;4.00;99.90;;;;;;4987852;28;20209;-45
2022/04/09 01:59:02;;;;;;;1.47;1.10;;;4.00;99.90;;;;;;4974576;28;20217;-44
2022/04/09 02:01:29;;;;;;;2.80;0.90;;;4.00;99.90;;;;;;4979074;28;20210;-45
2022/04/09 02:03:56;;;;;;;2.67;1.10;;;4.00;99.90;;;;;;4980584;28;20218;-45
2022/04/09 02:06:23;;;;;;;3.43;1.20;;;3.90;99.90;;;;;;4988360;28;20275;-46
2022/04/09 02:08:50;;;;;;;3.70;1.20;;;4.00;99.90;;;;;;4977895;28;20211;-45
2022/04/09 02:11:16;;;;;;;3.83;1.30;;;4.00;99.90;;;;;;4974276;28;20214;-45
2022/04/09 02:13:45;;;;;;;4.93;1.70;;;4.10;99.90;;;;;;4986892;28;20230;-46
2022/04/09 02:16:12;;;;;;;4.57;1.33;;;4.10;99.90;;;;;;4968223;28;20203;-45
2022/04/09 02:18:38;;;;;;;2.13;1.20;;;4.20;99.90;;;;;;4980327;28;20224;-47
2022/04/09 02:21:06;;;;;;;3.23;1.70;;;4.10;99.90;;;;;;4995491;28;20213;-47
2022/04/09 02:23:33;;;;;;;3.60;1.30;;;4.10;99.90;;;;;;4986164;28;20723;-45
2022/04/09 02:25:59;;;;;;;4.73;1.30;;;4.10;99.90;;;;;;4962728;28;20217;-47
2022/04/09 02:28:26;;;;;;;6.30;1.70;;;4.10;99.90;;;;;;4994373;28;20206;-46
2022/04/09 02:30:55;;;;;;;3.67;1.40;;;4.10;99.90;;;;;;4974177;28;20214;-47
2022/04/09 02:33:22;;;;;;;5.70;1.50;;;4.10;99.90;;;;;;4988868;28;20830;-47
2022/04/09 02:35:49;;;;;;;4.43;1.23;;;4.00;99.90;;;;;;4962085;28;20232;-46
2022/04/09 02:38:16;;;;;;;5.00;1.13;;;4.10;99.90;;;;;;4993064;28;20209;-46
2022/04/09 02:40:42;;;;;;;3.13;1.53;;;4.10;99.90;;;;;;4979394;28;20217;-47
2022/04/09 02:43:10;;;;;;;2.90;1.33;;;4.20;99.90;;;;;;4976246;28;20212;-46
2022/04/09 02:45:37;;;;;;;2.13;1.10;;;4.10;99.90;;;;;;4982542;28;20233;-46
2022/04/09 02:48:05;;;;;;;2.60;1.10;;;4.10;99.90;;;;;;4967775;28;20210;-47
2022/04/09 02:50:32;;;;;;;5.23;1.30;;;4.10;99.90;;;;;;4983945;28;20205;-46
2022/04/09 02:52:59;;;;;;;6.57;1.67;;;4.10;99.90;;;;;;4986408;28;20230;-45
2022/04/09 02:55:26;;;;;;;4.73;1.20;;;4.10;99.90;;;;;;4978499;28;20240;-46
2022/04/09 02:57:52;;;;;;;5.93;1.20;;;4.00;99.90;;;;;;4973692;28;20222;-44
2022/04/09 03:00:19;;;;;;;3.73;1.20;;;4.00;99.90;;;;;;4982408;28;20299;-45
2022/04/09 03:02:46;;;;;;;8.50;1.70;;;4.00;99.90;;;;;;4968069;28;20321;-45
2022/04/09 03:05:14;;;;;;;2.23;0.93;;;4.00;99.90;;;;;;4981502;28;20425;-46
2022/04/09 03:07:41;;;;;;;6.53;1.30;;;3.90;99.90;;;;;;4986179;28;20214;-47
2022/04/09 03:10:09;;;;;;;2.10;0.77;;;3.90;99.90;;;;;;4980494;28;20288;-47
2022/04/09 03:12:36;;;;;;;4.53;1.23;;;3.90;99.90;;;;;;4980318;28;20408;-46
2022/04/09 03:15:03;;;;;;;5.43;1.20;;;3.90;99.90;;;;;;4994555;28;20226;-47
2022/04/09 03:17:30;;;;;;;4.83;1.20;;;3.90;99.90;;;;;;4985117;28;20291;-46
2022/04/09 03:19:57;;;;;;;4.43;1.47;;;3.90;99.90;;;;;;4969405;28;22247;-47
2022/04/09 03:22:27;;;;;;;5.23;1.07;;;3.90;99.90;;;;;;5004092;28;20221;-46
2022/04/09 03:24:57;;;;;;;2.17;1.00;;;3.80;99.90;;;;;;4971866;28;20288;-47
2022/04/09 03:27:24;;;;;;;2.17;1.27;;;3.80;99.90;;;;;;4996553;28;20225;-46
2022/04/09 03:29:51;;;;;;;3.30;1.10;;;3.80;99.90;;;;;;4977728;28;20208;-47
2022/04/09 03:32:18;;;;;;;2.63;1.17;;;3.80;99.90;;;;;;4981610;28;20214;-45
2022/04/09 03:34:45;;;;;;;3.50;1.10;;;3.80;99.90;;;;;;4990011;28;20238;-47
2022/04/09 03:37:12;;;;;;;4.60;1.33;;;3.70;99.90;;;;;;4985545;28;20320;-46
2022/04/09 03:39:41;;;;;;;4.10;1.40;;;3.70;99.90;;;;;;5005233;28;20206;-46
2022/04/09 03:42:09;;;;;;;15.27;1.83;;;3.70;99.90;;;;;;4969914;28;20285;-45
2022/04/09 03:44:35;;;;;;;2.03;1.27;;;3.70;99.90;;;;;;4981088;28;20237;-46
2022/04/09 03:47:05;;;;;;;2.67;1.33;;;3.60;99.90;;;;;;4995164;28;20357;-46
2022/04/09 03:49:33;;;;;;;1.63;1.20;;;3.60;99.90;;;;;;4969458;28;20219;-46
2022/04/09 03:52:00;;;;;;;5.13;1.20;;;3.70;99.90;;;;;;4980098;28;23568;-46
2022/04/09 03:54:27;;;;;;;6.13;1.40;;;3.70;99.90;;;;;;4994680;28;20240;-45
2022/04/09 03:56:56;;;;;;;4.70;1.30;;;3.70;99.90;;;;;;4973080;28;20521;-46
2022/04/09 03:59:23;;;;;;;9.07;1.40;;;3.60;99.90;;;;;;4982446;28;20287;-45
2022/04/09 04:01:50;;;;;;;5.50;1.20;;;3.60;99.90;;;;;;4991622;28;20278;-46
2022/04/09 04:04:17;;;;;;;4.47;1.10;;;3.60;99.90;;;;;;4976988;28;20252;-46
2022/04/09 04:06:44;;;;;;;7.40;1.27;;;3.60;99.90;;;;;;5000461;28;20621;-49
2022/04/09 04:09:12;;;;;;;3.27;0.97;;;3.60;99.90;;;;;;4972880;28;20288;-47
2022/04/09 04:11:39;;;;;;;6.43;1.20;;;3.60;99.90;;;;;;4993317;28;20211;-50
2022/04/09 04:14:07;;;;;;;3.43;1.30;;;3.60;99.90;;;;;;4962788;28;20238;-44
2022/04/09 04:16:34;;;;;;;3.83;1.27;;;3.60;99.90;;;;;;4990766;28;20278;-46
2022/04/09 04:19:01;;;;;;;8.10;1.97;;;3.60;99.90;;;;;;4985284;28;20232;-46
2022/04/09 04:21:28;;;;;;;6.63;1.37;;;3.60;99.90;;;;;;4974282;28;20210;-45
2022/04/09 04:23:55;;;;;;;7.10;1.70;;;3.70;99.90;;;;;;4976820;28;20290;-50
2022/04/09 04:26:22;;;;;;;2.30;1.33;;;3.60;99.90;;;;;;4994925;28;20217;-45
2022/04/09 04:28:49;;;;;;;8.37;1.70;;;3.60;99.90;;;;;;4960110;28;20221;-50
2022/04/09 04:31:18;;;;;;;4.07;1.60;;;3.60;99.90;;;;;;4988860;28;20586;-47
2022/04/09 04:33:45;;;;;;;3.93;1.73;;;3.60;99.90;;;;;;4990760;28;20668;-49
2022/04/09 04:36:12;;;;;;;5.97;1.27;;;3.60;99.90;;;;;;4961124;28;20317;-45
2022/04/09 04:38:40;;;;;;;2.80;1.23;;;3.60;99.90;;;;;;4993079;28;20219;-50
2022/04/09 04:41:06;;;;;;;6.43;1.87;;;3.60;99.90;;;;;;4976874;28;20690;-46
2022/04/09 04:43:33;;;;;;;6.23;1.50;;;3.60;99.90;;;;;;4990603;28;20281;-45
2022/04/09 04:46:00;;;;;;;4.67;1.50;;;3.60;99.90;;;;;;4971414;28;20210;-45
2022/04/09 04:48:29;;;;;;;2.40;1.10;;;3.60;99.90;;;;;;4986403;28;20214;-45
2022/04/09 04:50:56;;;;;;;4.23;1.30;;;3.60;99.90;;;;;;4973528;28;20215;-46
2022/04/09 04:53:23;;;;;;;7.70;1.37;;;3.60;99.90;;;;;;4977571;28;20231;-46
2022/04/09 04:55:50;;;;;;;3.50;1.30;;;3.60;99.90;;;;;;4978733;28;20233;-46
2022/04/09 04:58:19;;;;;;;4.90;1.53;;;3.60;99.90;;;;;;4993182;28;20210;-46
2022/04/09 05:00:46;;;;;;;2.80;1.30;;;3.70;99.90;;;;;;4943343;28;20210;-45
2022/04/09 05:03:13;;;;;;;5.03;1.43;;;3.70;99.90;;;;;;4977730;28;20285;-50
2022/04/09 05:05:41;;;;;;;5.33;1.60;;;3.80;99.90;;;;;;4978717;28;20494;-47
2022/04/09 05:08:10;;;;;;;3.87;1.30;;;3.80;99.90;;;;;;4953929;28;20214;-47
2022/04/09 05:10:37;;;;;;;4.80;1.50;;;3.90;99.90;;;;;;4975159;28;21063;-45
2022/04/09 05:13:04;;;;;;;6.97;1.60;;;3.80;99.90;;;;;;4988692;28;20235;-46
2022/04/09 05:15:31;;;;;;;5.53;1.70;;;3.80;99.90;;;;;;4955258;28;20229;-46
2022/04/09 05:17:57;;;;;;;7.17;1.63;;;3.80;99.90;;;;;;4987712;28;20803;-45
2022/04/09 05:20:24;;;;;;;6.70;1.83;;;3.80;99.90;;;;;;4976015;28;20213;-45
2022/04/09 05:22:52;;;;;;;4.50;1.47;;;3.80;99.90;;;;;;4977047;28;20783;-45
2022/04/09 05:25:20;;;;;;;2.83;1.33;;;3.80;99.90;;;;;;4972390;28;20227;-46
2022/04/09 05:27:48;;;;;;;11.97;2.07;;;3.80;99.90;;;;;;4997612;28;20215;-46
2022/04/09 05:30:16;;;;;;;8.33;2.13;;;3.80;99.90;;;;;;4971885;28;20214;-52
2022/04/09 05:32:43;;;;;;;3.70;1.53;;;3.90;99.90;;;;;;4971603;28;20305;-46
2022/04/09 05:35:10;;;;;;;4.10;1.40;;;4.00;99.90;;;;;;4978661;28;20340;-47
2022/04/09 05:37:37;;;;;;;4.03;1.50;;;4.00;99.90;;;;;;4973811;28;20209;-46
2022/04/09 05:40:07;;;;;;;4.40;1.57;;;4.00;99.90;;;;;;4987152;28;20406;-47
2022/04/09 05:42:34;;;;;;;7.87;2.33;;;3.90;99.90;;;;;;4983322;28;20775;-46
2022/04/09 05:45:01;;;;;;;4.50;1.40;;;4.00;99.90;;;;;;4994404;28;20329;-47
2022/04/09 05:47:29;;;;;;;9.00;1.40;;;4.10;99.90;;;;;;4966456;28;20360;-46
2022/04/09 05:49:58;;;;;;;2.97;1.83;;;4.10;99.90;;;;;;4999564;28;20211;-46
2022/04/09 05:52:25;;;;;;;7.03;1.47;;;4.20;99.90;;;;;;4983954;28;20206;-45
2022/04/09 05:54:52;;;;;;;2.60;1.30;;;4.20;99.90;;;;;;4960703;28;20244;-47
2022/04/09 05:57:20;;;;;;;3.43;1.40;;;4.20;99.90;;;;;;4977498;28;20206;-46
2022/04/09 05:59:47;;;;;;;7.03;2.20;;;4.20;99.90;;;;;;4970209;28;20339;-47
2022/04/09 06:02:14;;;;;;;2.23;1.20;;;4.60;99.90;;;;;;4935160;28;20218;-46
2022/04/09 06:04:41;;;;;;;6.23;1.60;;;4.20;99.90;;;;;;4983828;28;20725;-46
2022/04/09 06:07:09;;;;;;;9.43;1.40;;;4.20;99.90;;;;;;4966417;28;20216;-49
2022/04/09 06:09:36;;;;;;;5.40;1.60;;;4.30;99.90;;;;;;4975883;28;20214;-46
2022/04/09 06:12:06;;;;;;;2.80;1.40;;;4.30;99.90;;;;;;4978452;28;20211;-46
2022/04/09 06:14:34;;;;;;;5.63;1.80;;;4.40;99.90;;;;;;4990941;28;20233;-46
2022/04/09 06:17:01;;;;;;;7.03;1.43;;;4.40;99.90;;;;;;4970757;28;20554;-46
2022/04/09 06:19:29;;;;;;;4.83;1.23;;;4.40;99.90;;;;;;4984046;28;20205;-46
2022/04/09 06:21:56;;;;;;;6.77;1.50;;;4.50;99.90;;;;;;4983479;28;20394;-45
2022/04/09 06:24:23;;;;;;;4.30;1.50;;;4.60;99.90;;;;;;4977515;28;20230;-46
2022/04/09 06:26:50;;;;;;;5.00;1.17;;;4.70;99.90;;;;;;4986803;28;20214;-46
2022/04/09 06:29:17;;;;;;;3.70;1.37;;;4.80;99.90;;;;;;4992844;28;20778;-46
2022/04/09 06:31:47;;;;;;;4.10;1.43;;;4.90;99.90;;;;;;4991515;28;20632;-46
2022/04/09 06:34:14;;;;;;;9.73;1.70;;;5.00;99.90;;;;;;4989693;28;20772;-47
2022/04/09 06:36:44;;;;;;;5.87;1.60;;;5.10;99.90;;;;;;4978992;28;20207;-46
2022/04/09 06:39:11;;;;;;;3.47;1.33;;;5.10;99.90;;;;;;4985633;28;20203;-46
2022/04/09 06:41:38;;;;;;;3.40;1.03;;;5.10;99.90;;;;;;4979103;28;20232;-47
2022/04/09 06:44:06;;;;;;;4.63;1.40;;;5.00;99.90;;;;;;4991030;28;20316;-47
2022/04/09 06:46:33;;;;;;;5.80;1.73;;;4.90;99.90;;;;;;4980454;28;20206;-46
2022/04/09 06:49:02;;;;;;;10.47;1.80;;;4.90;99.90;;;;;;4968374;28;20524;-46
2022/04/09 06:51:29;;;;;;;3.87;1.50;;;4.90;99.90;;;;;;4981503;28;20210;-45
2022/04/09 06:53:56;;;;;;;3.83;1.80;;;4.90;99.90;;;;;;4976920;28;20244;-45
2022/04/09 06:56:23;;;;;;;5.70;1.43;;;4.90;99.90;;;;;;4972410;28;20221;-46
2022/04/09 06:58:50;;;;;;;1.87;1.17;;;4.90;99.90;;;;;;4988112;28;20211;-47
2022/04/09 07:01:17;;;;;;;2.90;1.40;;;4.90;99.90;;;;;;4976628;28;20221;-47
2022/04/09 07:03:43;;;;;;;1.27;1.10;;;4.90;99.90;;;;;;4976841;28;20287;-46
2022/04/09 07:06:13;;;;;;;3.60;1.43;;;5.00;99.90;;;;;;4962310;28;20221;-47
2022/04/09 07:08:40;;;;;;;3.87;1.43;;;5.10;99.90;;;;;;4968442;28;20218;-46
2022/04/09 07:11:06;;;;;;;8.33;1.30;;;5.10;99.90;;;;;;4975258;28;20251;-47
2022/04/09 07:13:33;;;;;;;3.97;1.27;;;5.20;99.90;;;;;;4983147;28;20230;-47
2022/04/09 07:16:00;;;;;;;8.83;1.60;;;5.20;99.90;;;;;;4993026;28;20754;-46
2022/04/09 07:18:27;;;;;;;4.93;1.30;;;5.30;99.90;;;;;;4981233;28;20427;-47
2022/04/09 07:20:54;;;;;;;5.13;1.23;;;5.30;99.90;;;;;;4972016;28;20545;-47
2022/04/09 07:23:22;;;;;;;5.93;1.63;;;5.40;99.90;;;;;;4978827;28;20280;-46
2022/04/09 07:25:49;;;;;;;5.67;1.40;;;5.60;99.90;;;;;;4948452;28;20366;-47
2022/04/09 07:28:16;;;;;;;3.97;1.20;;;5.60;99.90;;;;;;4974634;28;20310;-46
2022/04/09 07:30:43;;;;;;;3.43;1.10;;;5.70;99.90;;;;;;4972981;28;20238;-47
2022/04/09 07:33:10;;;;;;;5.03;1.53;;;5.80;99.90;;;;;;4994668;28;20221;-47
2022/04/09 07:35:37;;;;;;;3.13;1.10;;;5.80;99.90;;;;;;4975692;28;20234;-47
2022/04/09 07:38:07;;;;;;;4.67;1.30;;;5.90;99.90;;;;;;4973976;28;20246;-46
2022/04/09 07:40:37;;;;;;;3.40;1.10;;;6.00;99.90;;;;;;4961369;28;20530;-47
2022/04/09 07:43:04;;;;;;;3.10;1.10;;;5.90;99.90;;;;;;4979128;28;20211;-46
2022/04/09 07:45:31;;;;;;;1.70;1.10;;;6.00;99.90;;;;;;4978130;28;20233;-46
2022/04/09 07:48:00;;;;;;;6.00;1.87;;;6.00;99.90;;;;;;4996637;28;20364;-45
2022/04/09 07:50:28;;;;;;;6.20;1.57;;;6.20;99.90;;;;;;4988481;28;20222;-49
2022/04/09 07:52:55;;;;;;;5.37;1.80;;;6.20;99.90;;;;;;4991516;28;20363;-46
2022/04/09 07:55:23;;;;;;;5.80;1.43;;;6.20;99.90;;;;;;4962120;28;20515;-46
2022/04/09 07:57:54;;;;;;;5.67;2.00;;;6.40;99.90;;;;;;4993268;28;20215;-49
2022/04/09 08:00:23;;;;;;;5.30;1.40;;;6.50;99.90;;;;;;4957128;28;20221;-46
2022/04/09 08:02:50;;;;;;;10.20;1.67;;;6.50;99.90;;;;;;4989852;28;20252;-46
2022/04/09 08:05:18;;;;;;;5.07;1.33;;;6.50;99.90;;;;;;4991306;28;20297;-45
2022/04/09 08:07:46;;;;;;;4.87;1.47;;;6.60;99.90;;;;;;4955700;28;20214;-46
2022/04/09 08:10:13;;;;;;;5.13;1.73;;;6.70;99.90;;;;;;4980016;28;20222;-45
2022/04/09 08:12:41;;;;;;;3.70;1.20;;;6.70;99.90;;;;;;4976593;28;20230;-46
2022/04/09 08:15:11;;;;;;;5.80;1.47;;;6.90;99.90;;;;;;4959250;28;20239;-46
2022/04/09 08:17:38;;;;;;;8.23;2.00;;;7.00;99.90;;;;;;4989177;28;20483;-46
2022/04/09 08:20:06;;;;;;;5.43;1.33;;;7.00;99.90;;;;;;4972422;28;20416;-46
2022/04/09 08:22:34;;;;;;;3.40;1.43;;;6.90;99.90;;;;;;4947443;28;20210;-47
2022/04/09 08:25:02;;;;;;;4.20;1.20;;;6.80;99.90;;;;;;4960518;28;20216;-46
2022/04/09 08:27:29;;;;;;;3.10;2.07;;;6.60;99.90;;;;;;4971383;28;20216;-45
2022/04/09 08:29:56;;;;;;;5.50;1.47;;;6.40;99.90;;;;;;4960188;28;20217;-47
2022/04/09 08:32:25;;;;;;;2.97;0.90;;;6.10;99.90;;;;;;4986011;28;20433;-46
2022/04/09 08:34:53;;;;;;;4.37;1.27;;;5.60;99.90;;;;;;4952281;28;20266;-46
2022/04/09 08:37:22;;;;;;;1.60;0.50;;;4.70;99.90;;;;;;4983673;28;20280;-46
2022/04/09 08:39:49;;;;;;;2.10;0.90;;;4.50;99.90;;;;;;4933799;28;20204;-46
2022/04/09 08:42:16;;;;;;;4.37;0.83;;;4.50;99.90;;;;;;4977483;28;20211;-46
2022/04/09 08:44:43;;;;;;;1.67;0.70;;;4.50;99.90;;;;;;4973034;28;20234;-46
2022/04/09 08:47:14;;;;;;;2.40;0.63;;;4.40;99.90;;;;;;4988222;28;20231;-45
2022/04/09 08:49:46;;;;;;;1.13;0.50;;;4.40;99.90;;;;;;4981187;28;20231;-47
2022/04/09 08:52:14;;;;;;;0.70;0.67;;;4.60;99.90;;;;;;5001494;28;20215;-47
2022/04/09 08:54:42;;;;;;;3.53;0.80;;;4.80;99.90;;;;;;4978197;28;20239;-47
2022/04/09 08:57:09;;;;;;;3.37;1.00;;;5.10;99.90;;;;;;4948102;28;20210;-45
2022/04/09 08:59:36;;;;;;;9.73;1.20;;;5.40;99.90;;;;;;4991097;28;20216;-47
2022/04/09 09:02:04;;;;;;;5.20;1.13;;;5.70;99.90;;;;;;4975849;28;20211;-46
2022/04/09 09:04:31;;;;;;;7.57;1.43;;;5.90;99.90;;;;;;4968042;28;20218;-46
2022/04/09 09:07:17;;;;;;;5.53;1.23;;;6.10;99.90;;;;;;4999117;28;20772;-45
2022/04/09 09:09:44;;;;;;;5.57;1.00;;;6.40;99.90;;;;;;4979472;28;20219;-46
2022/04/09 09:12:12;;;;;;;2.10;0.97;;;6.70;99.90;;;;;;4977340;28;20282;-46
2022/04/09 09:14:46;;;;;;;5.93;1.60;;;6.90;99.90;;;;;;4983773;28;20271;-45
2022/04/09 09:17:12;;;;;;;6.50;1.20;;;7.00;99.90;;;;;;4963409;28;20217;-46
2022/04/09 09:19:45;;;;;;;4.67;1.50;;;7.10;99.90;;;;;;4991690;28;20277;-47
2022/04/09 09:22:14;;;;;;;8.33;2.03;;;7.30;99.90;;;;;;4955207;28;20327;-47
2022/04/09 09:24:41;;;;;;;11.53;1.60;;;7.20;99.90;;;;;;4970893;28;20239;-46
2022/04/09 09:27:08;;;;;;;7.03;1.97;;;7.20;99.90;;;;;;4966210;28;20243;-47
2022/04/09 09:29:36;;;;;;;6.13;1.37;;;6.90;99.90;;;;;;4958109;28;20212;-46
2022/04/09 09:32:07;;;;;;;4.00;1.47;;;6.70;99.90;;;;;;4986851;28;20235;-47
2022/04/09 09:34:34;;;;;;;6.57;1.37;;;6.60;99.90;;;;;;4990097;28;20241;-47
2022/04/09 09:37:01;;;;;;;5.70;1.40;;;6.70;99.90;;;;;;4974610;28;21144;-47
2022/04/09 09:39:33;;;;;;;2.50;1.30;;;6.70;99.90;;;;;;4953997;28;20208;-46
2022/04/09 09:42:03;;;;;;;4.47;1.27;;;6.70;99.90;;;;;;4988833;28;20214;-47
2022/04/09 09:44:32;;;;;;;6.00;1.33;;;6.80;99.90;;;;;;4965245;28;20228;-48
2022/04/09 09:47:07;;;;;;;3.53;1.50;;;7.10;99.90;;;;;;4976844;28;20216;-46
2022/04/09 09:49:38;;;;;;;3.90;1.40;;;7.40;99.90;;;;;;4976381;28;20211;-46
2022/04/09 09:52:08;;;;;;;7.90;1.33;;;7.50;99.90;;;;;;4980788;28;20541;-44
2022/04/09 09:54:55;;;;;;;5.20;1.23;;;7.40;99.90;;;;;;4995452;28;20223;-46
2022/04/09 09:57:22;;;;;;;5.97;0.97;;;7.10;99.90;;;;;;4987813;28;20764;-46
2022/04/09 09:59:50;;;;;;;6.10;1.40;;;6.70;99.90;;;;;;4976378;28;20285;-48
2022/04/09 10:02:21;;;;;;;5.87;1.67;;;6.50;99.90;;;;;;4981507;28;20213;-46
2022/04/09 10:04:48;;;;;;;5.77;1.10;;;6.50;99.90;;;;;;4992071;28;20219;-47
2022/04/09 10:07:16;;;;;;;6.37;1.47;;;6.60;99.90;;;;;;4971404;28;20213;-46
2022/04/09 10:09:44;;;;;;;2.90;0.90;;;6.60;99.90;;;;;;4985852;28;20216;-46
2022/04/09 10:12:12;;;;;;;8.13;1.40;;;6.70;99.90;;;;;;4974761;28;20214;-46
2022/04/09 10:14:41;;;;;;;6.73;1.60;;;6.70;99.90;;;;;;4966396;28;20227;-46
2022/04/09 10:17:08;;;;;;;5.63;1.33;;;6.70;99.90;;;;;;4975047;28;21264;-48
2022/04/09 10:19:40;;;;;;;6.40;1.10;;;6.90;99.90;;;;;;4988907;28;20213;-47
2022/04/09 10:22:07;;;;;;;5.10;1.03;;;7.10;99.90;;;;;;4961661;28;20215;-50
2022/04/09 10:24:35;;;;;;;7.10;1.20;;;7.00;99.90;;;;;;4999803;28;20275;-45
2022/04/09 10:27:04;;;;;;;3.67;0.87;;;6.90;99.90;;;;;;4975232;28;20583;-49
2022/04/09 10:29:49;;;;;;;5.87;1.20;;;6.80;99.90;;;;;;4976039;28;20557;-46
2022/04/09 10:32:41;;;;;;;4.47;0.97;;;7.00;99.90;;;;;;4983224;28;20365;-48
2022/04/09 10:35:26;;;;;;;2.30;1.20;;;6.90;99.90;;;;;;4974801;28;20272;-49
2022/04/09 10:38:16;;;;;;;6.33;1.37;;;6.80;99.90;;;;;;4990180;28;20210;-49
2022/04/09 10:41:18;;;;;;;3.43;1.17;;;6.80;99.90;;;;;;4997281;28;20297;-48
2022/04/09 10:43:46;;;;;;;4.47;0.97;;;6.60;99.90;;;;;;4986764;28;20215;-45
2022/04/09 10:46:21;;;;;;;4.37;1.20;;;6.80;99.90;;;;;;4975208;28;21259;-45
2022/04/09 10:48:48;;;;;;;6.43;1.33;;;6.80;99.90;;;;;;5009038;28;20211;-46
2022/04/09 10:51:16;;;;;;;3.57;0.87;;;6.70;99.90;;;;;;4986745;28;20274;-46
2022/04/09 10:53:44;;;;;;;5.80;1.40;;;6.70;99.90;;;;;;4982782;28;20297;-46
2022/04/09 10:56:20;;;;;;;5.73;1.33;;;6.80;99.90;;;;;;4992152;28;20223;-46
2022/04/09 10:59:08;;;;;;;5.67;0.93;;;6.80;99.90;;;;;;4965244;28;20218;-46
2022/04/09 11:01:51;;;;;;;8.40;1.30;;;6.80;99.90;;;;;;4988150;28;20218;-45
2022/04/09 11:04:51;;;;;;;4.57;1.23;;;6.80;99.90;;;;;;4953702;28;20229;-46
2022/04/09 11:07:19;;;;;;;6.27;1.30;;;6.70;99.90;;;;;;5050581;28;20200;-45
2022/04/09 11:09:57;;;;;;;6.83;1.60;;;6.60;99.90;;;;;;5035015;28;20208;-47
2022/04/09 11:12:25;;;;;;;5.10;1.67;;;6.60;99.90;;;;;;5018968;28;20210;-47
2022/04/09 11:14:55;;;;;;;8.70;1.27;;;6.60;99.90;;;;;;4990698;28;20242;-47
2022/04/09 11:17:30;;;;;;;5.73;1.57;;;6.60;99.90;;;;;;4990027;28;20305;-45
2022/04/09 11:20:01;;;;;;;4.27;1.20;;;6.70;99.90;;;;;;4972748;28;20284;-46
2022/04/09 11:22:33;;;;;;;2.30;0.90;;;7.10;99.90;;;;;;4997499;28;20297;-45
2022/04/09 11:25:00;;;;;;;4.53;1.30;;;7.30;99.90;;;;;;4977298;28;20234;-46
2022/04/09 11:27:27;;;;;;;7.73;1.60;;;7.40;99.90;;;;;;4998640;28;20207;-45
2022/04/09 11:29:57;;;;;;;7.60;1.40;;;7.30;99.90;;;;;;4959580;28;20214;-46
2022/04/09 11:32:25;;;;;;;4.97;1.47;;;7.40;99.90;;;;;;4972717;28;20269;-46
2022/04/09 11:34:55;;;;;;;4.77;1.20;;;7.60;99.90;;;;;;4978338;28;20312;-47
2022/04/09 11:37:23;;;;;;;1.53;0.93;;;7.80;99.90;;;;;;4976076;28;20213;-46
2022/04/09 11:39:52;;;;;;;6.80;1.37;;;7.60;99.90;;;;;;4980585;28;20237;-44
2022/04/09 11:42:19;;;;;;;3.60;1.47;;;7.40;99.90;;;;;;4989935;28;20208;-45
2022/04/09 11:44:46;;;;;;;3.30;1.03;;;7.30;99.90;;;;;;4960981;28;20302;-46
2022/04/09 11:47:17;;;;;;;5.07;1.40;;;7.20;99.90;;;;;;4964538;28;20237;-46
2022/04/09 11:49:47;;;;;;;6.23;1.40;;;7.60;99.90;;;;;;4973240;28;20211;-44
2022/04/09 11:52:14;;;;;;;3.33;1.40;;;7.90;99.90;;;;;;4984981;28;21327;-45
2022/04/09 11:54:43;;;;;;;7.17;1.10;;;8.00;99.90;;;;;;4988317;28;20661;-49
2022/04/09 11:57:13;;;;;;;8.03;2.07;;;8.10;99.90;;;;;;4988578;28;20206;-46
2022/04/09 11:59:41;;;;;;;11.73;1.80;;;7.80;99.90;;;;;;4982204;28;20312;-49
2022/04/09 12:02:21;;;;;;;4.73;1.83;;;7.70;99.90;;;;;;4985367;28;20317;-45
2022/04/09 12:04:49;;;;;;;7.07;1.80;;;7.70;99.90;;;;;;4981263;28;20255;-50
2022/04/09 12:07:17;;;;;;;5.00;1.40;;;7.70;99.90;;;;;;4985499;28;20289;-44
2022/04/09 12:09:44;;;;;;;5.73;1.20;;;7.70;99.90;;;;;;4992185;28;20217;-49
2022/04/09 12:12:11;;;;;;;3.27;1.50;;;7.80;99.90;;;;;;4982321;28;20320;-46
2022/04/09 12:14:40;;;;;;;7.80;1.37;;;7.90;99.90;;;;;;4987900;28;20301;-46
2022/04/09 12:20:36;;;;;;;7.60;1.60;;;8.10;99.90;;;;;;5020576;28;20173;-46
2022/04/09 12:23:04;;;;;;;7.03;1.37;;;8.00;99.90;;;;;;4987131;28;20199;-45
2022/04/09 12:25:39;;;;;;;6.73;1.50;;;8.00;99.90;;;;;;5005430;28;20295;-45
2022/04/09 12:28:18;;;;;;;3.10;1.37;;;8.30;99.90;;;;;;4974121;28;20201;-44
2022/04/09 12:34:51;;;;;;;4.37;1.80;;;8.50;99.90;;;;;;4975707;28;20231;-47
2022/04/09 12:37:20;;;;;;;4.23;1.17;;;8.50;99.90;;;;;;4982902;28;20263;-47
2022/04/09 12:39:47;;;;;;;4.97;1.50;;;8.50;99.90;;;;;;4977889;28;20686;-48
2022/04/09 12:42:15;;;;;;;9.07;1.70;;;8.40;99.90;;;;;;4989067;28;20281;-49
2022/04/09 12:44:43;;;;;;;8.80;2.00;;;8.40;99.90;;;;;;4977328;28;20839;-45
2022/04/09 12:47:11;;;;;;;7.53;1.77;;;8.30;99.90;;;;;;4976658;28;20226;-49
2022/04/09 12:49:40;;;;;;;9.63;2.00;;;8.10;99.90;;;;;;4981954;28;20218;-44
2022/04/09 12:55:31;;;;;;;7.53;2.07;;;8.20;99.90;;;;;;4990432;28;20422;-49
2022/04/09 12:57:59;;;;;;;2.93;1.33;;;8.10;99.90;;;;;;4984355;28;20224;-46
2022/04/09 13:00:27;;;;;;;9.47;1.70;;;8.10;99.90;;;;;;4991517;28;20248;-50
2022/04/09 13:02:58;;;;;;;5.63;2.00;;;8.20;99.90;;;;;;4992169;28;20202;-46
2022/04/09 13:05:25;;;;;;;13.13;1.87;;;8.20;99.90;;;;;;4975988;28;20256;-49
2022/04/09 13:07:52;;;;;;;7.17;2.13;;;8.10;99.90;;;;;;4985195;28;20257;-45
2022/04/09 13:10:19;;;;;;;5.77;2.40;;;8.10;99.90;;;;;;4963276;28;20427;-46
2022/04/09 13:12:47;;;;;;;10.07;1.50;;;8.10;99.90;;;;;;4979817;28;20206;-46
2022/04/09 13:15:51;;;;;;;7.10;1.73;;;8.10;99.90;;;;;;4984156;28;20260;-46